Time;durP1;ratioP1;P1;durP2;ratioP2;P2;SDS_P1;SDS_P2;PMS_P1;PMS_P2;Temp;Humidity;BMP_temperature;BMP_pressure;BME280_temperature;BME280_humidity;BME280_pressure;Samples;Min_cycle;Max_cycle;Signal;HPM_P1;HPM_P2
2022/01/15 00:01:04;;;;;;;0.47;0.47;;;8.70;99.90;;;;;;6159899;23;20201;-91
2022/01/15 00:03:31;;;;;;;0.40;0.40;;;8.70;99.90;;;;;;6160181;23;20193;-90
2022/01/15 00:05:57;;;;;;;3.23;0.57;;;8.70;99.90;;;;;;6210902;23;20162;-91
2022/01/15 00:08:24;;;;;;;1.40;1.10;;;8.60;99.90;;;;;;6160498;23;20289;-90
2022/01/15 00:10:50;;;;;;;1.20;0.93;;;8.60;99.90;;;;;;6185316;23;20197;-91
2022/01/15 00:13:29;;;;;;;0.67;0.63;;;8.60;99.90;;;;;;6209463;23;20229;-90
2022/01/15 00:16:11;;;;;;;7.53;1.43;;;8.70;99.90;;;;;;6210396;23;20189;-91
2022/01/15 00:19:04;;;;;;;0.40;0.40;;;8.60;99.90;;;;;;6210280;23;20143;-91
2022/01/15 00:21:30;;;;;;;0.50;0.50;;;8.70;99.90;;;;;;6171169;23;20572;-90
2022/01/15 00:23:55;;;;;;;1.97;0.40;;;8.70;99.90;;;;;;6185614;23;20188;-91
2022/01/15 00:26:21;;;;;;;8.33;1.03;;;8.70;99.90;;;;;;6159561;23;20198;-91
2022/01/15 00:28:47;;;;;;;1.27;0.60;;;8.60;99.90;;;;;;6185091;23;20201;-91
2022/01/15 00:31:13;;;;;;;14.53;0.97;;;8.70;99.90;;;;;;6159998;23;20198;-91
2022/01/15 00:33:38;;;;;;;0.50;0.40;;;8.60;99.90;;;;;;6159928;23;20186;-91
2022/01/15 00:36:05;;;;;;;0.60;0.60;;;8.70;99.90;;;;;;6185205;23;20202;-91
2022/01/15 00:38:30;;;;;;;0.63;0.50;;;8.60;99.90;;;;;;6184519;23;20276;-91
2022/01/15 00:40:56;;;;;;;0.40;0.30;;;8.60;99.90;;;;;;6160147;23;20249;-91
2022/01/15 00:43:22;;;;;;;12.30;1.50;;;8.60;99.90;;;;;;6159977;23;20200;-92
2022/01/15 00:45:48;;;;;;;5.93;0.87;;;8.60;99.90;;;;;;6184770;23;20264;-92
2022/01/15 00:48:14;;;;;;;2.47;1.20;;;8.50;99.90;;;;;;6160891;23;20521;-91
2022/01/15 00:50:40;;;;;;;4.50;1.03;;;8.50;99.90;;;;;;6209386;23;20240;-91
2022/01/15 00:53:06;;;;;;;1.27;0.87;;;8.50;99.90;;;;;;6209645;23;20252;-91
2022/01/15 00:55:32;;;;;;;1.00;1.00;;;8.50;99.90;;;;;;6184179;23;20194;-91
2022/01/15 00:57:57;;;;;;;0.83;0.80;;;8.60;99.90;;;;;;6184444;23;20623;-91
2022/01/15 01:00:25;;;;;;;0.83;0.50;;;8.70;99.90;;;;;;6160346;23;20576;-91
2022/01/15 01:02:51;;;;;;;3.73;0.67;;;8.60;99.90;;;;;;6209248;23;20209;-91
2022/01/15 01:05:17;;;;;;;1.50;0.70;;;8.60;99.90;;;;;;6184021;23;20256;-91
2022/01/15 01:07:43;;;;;;;0.63;0.30;;;8.60;99.90;;;;;;6184266;23;20256;-91
2022/01/15 01:23:24;;;;;;;1.13;0.70;;;8.50;99.90;;;;;;6209469;23;20198;-91
2022/01/15 01:25:55;;;;;;;0.30;0.30;;;8.50;99.90;;;;;;6208830;23;20287;-90
2022/01/15 01:28:44;;;;;;;0.90;0.63;;;8.50;99.90;;;;;;6185672;23;20201;-91
2022/01/15 01:31:19;;;;;;;0.47;0.47;;;8.50;99.90;;;;;;6188522;23;20194;-92
2022/01/15 01:33:49;;;;;;;0.67;0.67;;;8.50;99.90;;;;;;6186110;23;20327;-91
2022/01/15 01:41:17;;;;;;;1.03;0.57;;;8.60;99.90;;;;;;6209823;23;20210;-91
2022/01/15 01:43:48;;;;;;;0.70;0.70;;;8.50;99.90;;;;;;6208735;23;20297;-91
2022/01/15 01:46:20;;;;;;;9.20;1.73;;;8.50;99.90;;;;;;6184478;23;20190;-92
2022/01/15 01:48:47;;;;;;;1.43;1.33;;;8.60;99.90;;;;;;6161496;23;20193;-91
2022/01/15 01:51:34;;;;;;;1.07;0.80;;;8.60;99.90;;;;;;6185028;23;20224;-91
2022/01/15 01:54:04;;;;;;;1.57;1.07;;;8.60;99.90;;;;;;6209671;23;20268;-91
2022/01/15 01:56:30;;;;;;;0.37;0.37;;;8.60;99.90;;;;;;6209037;23;20269;-91
2022/01/15 01:58:56;;;;;;;0.80;0.80;;;8.60;99.90;;;;;;6159805;23;20190;-91
2022/01/15 02:01:22;;;;;;;2.80;1.03;;;8.60;99.90;;;;;;6210427;23;20190;-91
2022/01/15 02:03:48;;;;;;;1.10;1.07;;;8.60;99.90;;;;;;6209675;23;20194;-91
2022/01/15 02:06:15;;;;;;;4.90;0.77;;;8.60;99.90;;;;;;6209635;23;20576;-91
2022/01/15 02:08:41;;;;;;;0.20;0.20;;;8.50;99.90;;;;;;6209039;23;20200;-91
2022/01/15 02:11:08;;;;;;;1.03;0.90;;;8.50;99.90;;;;;;6184495;23;20198;-91
2022/01/15 02:13:38;;;;;;;1.03;0.97;;;8.50;99.90;;;;;;6184075;23;20205;-90
2022/01/15 02:16:06;;;;;;;1.97;0.80;;;8.50;99.90;;;;;;6209537;23;20615;-91
2022/01/15 02:18:34;;;;;;;0.90;0.87;;;8.50;99.90;;;;;;6184078;23;20611;-91
2022/01/15 02:23:44;;;;;;;0.70;0.70;;;8.50;99.90;;;;;;6210888;23;20205;-91
2022/01/15 02:26:23;;;;;;;0.57;0.57;;;8.40;99.90;;;;;;6210922;23;20577;-91
2022/01/15 02:28:59;;;;;;;1.33;0.50;;;8.40;99.90;;;;;;6209552;23;20236;-91
2022/01/15 02:31:27;;;;;;;0.63;0.43;;;8.40;99.90;;;;;;6209453;23;20204;-91
2022/01/15 02:33:54;;;;;;;1.17;0.73;;;8.50;99.90;;;;;;6208735;23;20209;-91
2022/01/15 02:36:25;;;;;;;0.50;0.50;;;8.40;99.90;;;;;;6184768;23;20288;-91
2022/01/15 02:38:52;;;;;;;0.50;0.50;;;8.40;99.90;;;;;;6209707;23;20603;-91
2022/01/15 02:41:30;;;;;;;0.90;0.90;;;8.30;99.90;;;;;;6159238;23;20205;-91
2022/01/15 02:43:58;;;;;;;0.30;0.30;;;8.30;99.90;;;;;;6208868;23;20193;-92
2022/01/15 02:48:55;;;;;;;0.57;0.57;;;8.20;99.90;;;;;;6210943;23;20273;-91
2022/01/15 02:51:29;;;;;;;0.87;0.63;;;8.20;99.90;;;;;;6185659;23;20174;-91
2022/01/15 02:53:55;;;;;;;21.43;1.53;;;8.20;99.90;;;;;;6209045;23;20202;-91
2022/01/15 02:56:25;;;;;;;2.07;1.17;;;8.20;99.90;;;;;;6209012;23;20190;-91
2022/01/15 02:58:51;;;;;;;0.97;0.90;;;8.20;99.90;;;;;;6183997;23;20197;-91
2022/01/15 03:01:18;;;;;;;2.47;1.03;;;8.10;99.90;;;;;;6159155;23;20194;-91
2022/01/15 03:03:44;;;;;;;1.40;1.03;;;8.10;99.90;;;;;;6208637;23;20158;-91
2022/01/15 03:06:12;;;;;;;1.27;0.80;;;8.20;99.90;;;;;;6209854;23;20245;-91
2022/01/15 03:08:42;;;;;;;7.53;0.90;;;8.20;99.90;;;;;;6208943;23;20205;-91
2022/01/15 03:11:09;;;;;;;1.40;1.03;;;8.20;99.90;;;;;;6160008;23;20198;-91
2022/01/15 03:13:36;;;;;;;0.87;0.87;;;8.20;99.90;;;;;;6183583;23;20202;-91
2022/01/15 03:16:02;;;;;;;4.50;1.13;;;8.20;99.90;;;;;;6208859;23;20561;-91
2022/01/15 03:18:28;;;;;;;1.37;1.20;;;8.10;99.90;;;;;;6208786;23;20165;-91
2022/01/15 03:20:54;;;;;;;0.83;0.80;;;8.20;99.90;;;;;;6184055;23;20576;-91
2022/01/15 03:23:20;;;;;;;1.23;1.23;;;8.20;99.90;;;;;;6208181;23;20201;-91
2022/01/15 03:25:46;;;;;;;33.03;1.87;;;8.20;99.90;;;;;;6158548;23;20705;-91
2022/01/15 03:28:11;;;;;;;1.00;0.90;;;8.20;99.90;;;;;;6183494;23;20224;-91
2022/01/15 03:30:38;;;;;;;1.07;0.87;;;8.20;99.90;;;;;;6159229;23;20166;-91
2022/01/15 03:33:04;;;;;;;2.47;1.17;;;8.20;99.90;;;;;;6186090;23;20249;-92
2022/01/15 03:35:30;;;;;;;1.50;1.27;;;8.20;99.90;;;;;;6185143;23;20248;-91
2022/01/15 03:37:56;;;;;;;23.47;2.10;;;8.10;99.90;;;;;;6185147;23;20198;-91
2022/01/15 03:40:22;;;;;;;9.23;2.83;;;8.10;99.90;;;;;;6159986;23;20197;-91
2022/01/15 03:42:48;;;;;;;1.10;1.00;;;8.00;99.90;;;;;;6185444;23;20189;-91
2022/01/15 03:45:15;;;;;;;1.50;0.77;;;7.90;99.90;;;;;;6185931;23;20576;-91
2022/01/15 03:47:43;;;;;;;3.90;1.43;;;7.90;99.90;;;;;;6184604;23;20195;-91
2022/01/15 03:50:09;;;;;;;1.27;0.90;;;8.00;99.90;;;;;;6209834;23;20201;-91
2022/01/15 03:52:35;;;;;;;10.63;1.97;;;7.90;99.90;;;;;;6185210;23;20267;-91
2022/01/15 03:55:03;;;;;;;9.97;1.77;;;7.90;99.90;;;;;;6184830;23;20209;-91
2022/01/15 03:57:29;;;;;;;29.27;1.93;;;8.00;99.90;;;;;;6209873;23;20157;-91
2022/01/15 03:59:55;;;;;;;5.70;1.63;;;8.10;99.90;;;;;;6161329;23;20162;-91
2022/01/15 04:02:21;;;;;;;13.60;2.07;;;8.10;99.90;;;;;;6160155;23;20229;-91
2022/01/15 04:04:46;;;;;;;11.67;1.87;;;8.20;99.90;;;;;;6185146;23;20206;-91
2022/01/15 04:07:12;;;;;;;1.53;1.13;;;8.20;99.90;;;;;;6160050;23;20201;-91
2022/01/15 04:09:38;;;;;;;3.77;1.73;;;8.30;99.90;;;;;;6160074;23;20217;-91
2022/01/15 04:12:04;;;;;;;1.37;0.83;;;8.20;99.90;;;;;;6186168;23;20213;-91
2022/01/15 04:14:30;;;;;;;2.27;1.20;;;8.20;99.90;;;;;;6184688;23;20655;-91
2022/01/15 04:16:56;;;;;;;1.87;1.03;;;8.20;99.90;;;;;;6185009;23;20224;-91
2022/01/15 04:19:22;;;;;;;1.17;1.13;;;8.20;99.90;;;;;;6160194;23;20627;-91
2022/01/15 04:21:47;;;;;;;0.90;0.90;;;8.20;99.90;;;;;;6160073;23;20221;-91
2022/01/15 04:24:13;;;;;;;2.47;2.20;;;8.20;99.90;;;;;;6185795;23;20163;-91
2022/01/15 04:26:39;;;;;;;4.70;1.63;;;8.20;99.90;;;;;;6184735;23;20654;-92
2022/01/15 04:29:06;;;;;;;1.50;1.40;;;8.20;99.90;;;;;;6159933;23;20212;-92
2022/01/15 04:31:51;;;;;;;3.10;1.57;;;8.10;99.90;;;;;;6160623;23;20201;-91
2022/01/15 04:34:22;;;;;;;1.33;0.90;;;8.10;99.90;;;;;;6188669;23;20213;-91
2022/01/15 04:36:50;;;;;;;1.80;0.70;;;8.10;99.90;;;;;;6209803;23;20657;-91
2022/01/15 04:39:16;;;;;;;0.63;0.63;;;8.00;99.90;;;;;;6185807;23;20969;-91
2022/01/15 04:41:42;;;;;;;0.67;0.67;;;8.00;99.90;;;;;;6184417;23;20277;-91
2022/01/15 04:44:08;;;;;;;0.33;0.33;;;7.90;99.90;;;;;;6184429;23;20198;-91
2022/01/15 04:46:35;;;;;;;0.90;0.53;;;7.90;99.90;;;;;;6184355;23;20202;-91
2022/01/15 04:49:01;;;;;;;1.07;0.80;;;7.90;99.90;;;;;;6185028;23;20321;-91
2022/01/15 04:51:27;;;;;;;1.83;0.80;;;7.90;99.90;;;;;;6184692;23;20741;-91
2022/01/15 04:53:53;;;;;;;0.93;0.63;;;7.90;99.90;;;;;;6185758;23;20631;-91
2022/01/15 04:56:18;;;;;;;0.70;0.70;;;7.90;99.90;;;;;;6184213;23;20194;-91
2022/01/15 04:58:44;;;;;;;1.23;1.13;;;7.90;99.90;;;;;;6184080;23;20204;-91
2022/01/15 05:01:10;;;;;;;1.00;0.80;;;7.80;99.90;;;;;;6184103;23;20592;-91
2022/01/15 05:03:35;;;;;;;1.70;0.77;;;7.80;99.90;;;;;;6184454;23;20166;-91
2022/01/15 05:06:01;;;;;;;0.20;0.20;;;7.80;99.90;;;;;;6160607;23;20186;-91
2022/01/15 05:08:27;;;;;;;1.03;0.67;;;7.80;99.90;;;;;;6159753;23;20201;-91
2022/01/15 05:10:57;;;;;;;0.93;0.60;;;7.80;99.90;;;;;;6159457;23;20291;-91
2022/01/15 05:13:27;;;;;;;2.03;1.07;;;7.80;99.90;;;;;;6184825;23;20210;-90
2022/01/15 05:15:53;;;;;;;1.57;0.57;;;7.80;99.90;;;;;;6161263;23;20194;-91
2022/01/15 05:18:19;;;;;;;0.97;0.83;;;7.80;99.90;;;;;;6210112;23;20610;-90
2022/01/15 05:20:45;;;;;;;1.50;1.00;;;7.80;99.90;;;;;;6183842;23;20293;-90
2022/01/15 05:23:12;;;;;;;1.03;0.90;;;7.80;99.90;;;;;;6159679;23;20244;-90
2022/01/15 05:25:39;;;;;;;0.90;0.77;;;7.80;99.90;;;;;;6159587;23;20202;-90
2022/01/15 05:28:06;;;;;;;0.27;0.27;;;7.80;99.90;;;;;;6184031;23;20194;-90
2022/01/15 05:30:33;;;;;;;1.97;0.87;;;7.80;99.90;;;;;;6183728;23;20289;-90
2022/01/15 05:32:58;;;;;;;1.33;0.40;;;7.80;99.90;;;;;;6160414;23;20208;-91
2022/01/15 05:35:27;;;;;;;1.30;1.20;;;7.80;99.90;;;;;;6183434;23;20655;-91
2022/01/15 05:37:54;;;;;;;2.80;1.30;;;7.70;99.90;;;;;;6208815;23;20228;-91
2022/01/15 05:40:20;;;;;;;0.20;0.20;;;7.70;99.90;;;;;;6208980;23;20764;-91
2022/01/15 05:42:46;;;;;;;0.63;0.63;;;7.70;99.90;;;;;;6184277;23;20196;-90
2022/01/15 05:45:13;;;;;;;0.20;0.20;;;7.70;99.90;;;;;;6159974;23;20490;-90
2022/01/15 05:47:39;;;;;;;0.40;0.40;;;7.60;99.90;;;;;;6159130;23;20198;-90
2022/01/15 05:50:05;;;;;;;1.07;0.93;;;7.50;99.90;;;;;;6183946;23;20650;-91
2022/01/15 05:52:31;;;;;;;1.00;0.73;;;7.50;99.90;;;;;;6208676;23;20834;-91
2022/01/15 05:54:57;;;;;;;0.40;0.40;;;7.50;99.90;;;;;;6158687;23;20243;-91
2022/01/15 05:57:22;;;;;;;0.20;0.20;;;7.50;99.90;;;;;;6184330;23;20211;-91
2022/01/15 05:59:51;;;;;;;0.90;0.87;;;7.60;99.90;;;;;;6159132;23;20202;-91
2022/01/15 06:02:21;;;;;;;1.60;0.80;;;7.60;99.90;;;;;;6159930;23;20213;-91
2022/01/15 06:04:48;;;;;;;0.40;0.40;;;7.60;99.90;;;;;;6184261;23;20589;-91
2022/01/15 06:07:13;;;;;;;0.40;0.40;;;7.60;99.90;;;;;;6183948;23;20221;-91
2022/01/15 06:09:39;;;;;;;0.40;0.40;;;7.60;99.90;;;;;;6183673;23;20166;-91
2022/01/15 06:12:05;;;;;;;1.73;0.87;;;7.60;99.90;;;;;;6184517;23;20169;-91
2022/01/15 06:14:31;;;;;;;0.53;0.53;;;7.60;99.90;;;;;;6158629;23;20210;-91
2022/01/15 06:16:58;;;;;;;0.47;0.47;;;7.60;99.90;;;;;;6208228;23;20194;-90
2022/01/15 06:19:25;;;;;;;0.30;0.30;;;7.50;99.90;;;;;;6184302;23;20189;-91
2022/01/15 06:21:51;;;;;;;0.50;0.50;;;7.50;99.90;;;;;;6208243;23;20194;-90
2022/01/15 06:24:17;;;;;;;0.93;0.87;;;7.50;99.90;;;;;;6159679;23;20162;-91
2022/01/15 06:26:42;;;;;;;0.87;0.80;;;7.50;99.90;;;;;;6182987;23;20585;-91
2022/01/15 06:29:08;;;;;;;0.50;0.50;;;7.40;99.90;;;;;;6158789;23;20546;-91
2022/01/15 06:31:34;;;;;;;0.50;0.50;;;7.50;99.90;;;;;;6158638;23;20259;-91
2022/01/15 06:34:00;;;;;;;0.73;0.43;;;7.40;99.90;;;;;;6183386;23;20208;-91
2022/01/15 06:36:26;;;;;;;0.30;0.30;;;7.40;99.90;;;;;;6208578;23;20202;-90
2022/01/15 06:38:52;;;;;;;0.47;0.47;;;7.30;99.90;;;;;;6209021;23;20593;-91
2022/01/15 06:41:18;;;;;;;0.47;0.47;;;7.30;99.90;;;;;;6208065;23;20210;-91
2022/01/15 06:43:44;;;;;;;0.67;0.67;;;7.20;99.90;;;;;;6183626;23;20245;-91
2022/01/15 06:46:09;;;;;;;0.73;0.73;;;7.30;99.90;;;;;;6183342;23;20213;-91
2022/01/15 06:48:36;;;;;;;1.40;1.17;;;7.30;99.90;;;;;;6208366;23;20165;-91
2022/01/15 06:51:03;;;;;;;0.40;0.40;;;7.30;99.90;;;;;;6184353;23;20174;-91
2022/01/15 06:53:29;;;;;;;0.53;0.53;;;7.30;99.90;;;;;;6206820;23;20201;-91
2022/01/15 06:55:55;;;;;;;1.10;1.10;;;7.30;99.90;;;;;;6183071;23;20263;-91
2022/01/15 06:58:22;;;;;;;0.97;0.77;;;7.30;99.90;;;;;;6158294;23;20182;-91
2022/01/15 07:00:49;;;;;;;1.40;0.80;;;7.30;99.90;;;;;;6183425;23;20201;-91
2022/01/15 07:03:16;;;;;;;1.70;1.60;;;7.40;99.90;;;;;;6183389;23;20173;-91
2022/01/15 07:05:44;;;;;;;1.13;1.13;;;7.40;99.90;;;;;;6183557;23;20194;-91
2022/01/15 07:08:10;;;;;;;7.27;2.20;;;7.40;99.90;;;;;;6185533;23;20552;-91
2022/01/15 07:10:41;;;;;;;3.40;0.80;;;7.30;99.90;;;;;;6185033;23;20213;-91
2022/01/15 07:13:07;;;;;;;2.47;1.43;;;7.30;99.90;;;;;;6210442;23;20730;-89
2022/01/15 07:15:34;;;;;;;1.80;1.40;;;7.20;99.90;;;;;;6210176;23;20573;-90
2022/01/15 07:18:00;;;;;;;1.07;1.03;;;7.10;99.90;;;;;;6185372;23;20154;-90
2022/01/15 07:20:26;;;;;;;0.77;0.77;;;7.10;99.90;;;;;;6160507;23;20225;-90
2022/01/15 07:22:52;;;;;;;1.30;0.77;;;7.10;99.90;;;;;;6184911;23;20671;-89
2022/01/15 07:25:18;;;;;;;5.10;1.60;;;7.10;99.90;;;;;;6209221;23;20241;-90
2022/01/15 07:27:44;;;;;;;0.93;0.40;;;7.10;99.90;;;;;;6185215;23;20186;-91
2022/01/15 07:30:12;;;;;;;2.73;0.80;;;7.10;99.90;;;;;;6160775;23;20185;-89
2022/01/15 07:32:40;;;;;;;0.40;0.40;;;7.00;99.90;;;;;;6184923;23;20200;-89
2022/01/15 07:35:07;;;;;;;0.30;0.30;;;7.00;99.90;;;;;;6209653;23;20209;-89
2022/01/15 07:37:34;;;;;;;0.30;0.30;;;6.90;99.90;;;;;;6184049;23;20210;-89
2022/01/15 07:40:00;;;;;;;0.60;0.60;;;6.90;99.90;;;;;;6184850;23;20198;-89
2022/01/15 07:42:28;;;;;;;0.40;0.33;;;6.90;99.90;;;;;;6209740;23;20158;-89
2022/01/15 07:44:54;;;;;;;0.67;0.53;;;6.90;99.90;;;;;;6161003;23;20220;-90
2022/01/15 07:47:20;;;;;;;0.30;0.30;;;6.90;99.90;;;;;;6159926;23;20284;-90
2022/01/15 07:49:45;;;;;;;0.60;0.60;;;6.90;99.90;;;;;;6158852;23;20201;-90
2022/01/15 07:52:11;;;;;;;0.40;0.40;;;6.80;99.90;;;;;;6185134;23;20185;-92
2022/01/15 07:54:37;;;;;;;0.20;0.20;;;6.90;99.90;;;;;;6160621;23;20333;-94
2022/01/15 07:57:03;;;;;;;0.23;0.23;;;6.80;99.90;;;;;;6185733;23;20166;-93
2022/01/15 07:59:29;;;;;;;0.20;0.20;;;6.80;99.90;;;;;;6184880;23;20197;-91
2022/01/15 08:01:54;;;;;;;0.70;0.70;;;6.80;99.90;;;;;;6159502;23;20288;-92
2022/01/15 08:04:20;;;;;;;1.17;1.07;;;6.80;99.90;;;;;;6184540;23;20621;-91
2022/01/15 08:06:46;;;;;;;0.50;0.50;;;6.80;99.90;;;;;;6208832;23;20205;-90
2022/01/15 08:09:12;;;;;;;0.30;0.30;;;6.80;99.90;;;;;;6184759;23;20162;-90
2022/01/15 08:11:38;;;;;;;0.80;0.80;;;6.90;99.90;;;;;;6185258;23;20204;-94
2022/01/15 08:14:04;;;;;;;1.20;0.67;;;6.80;99.90;;;;;;6184429;23;20237;-88
2022/01/15 08:16:30;;;;;;;0.83;0.83;;;6.90;99.90;;;;;;6159660;23;20623;-90
2022/01/15 08:18:56;;;;;;;0.80;0.80;;;6.90;99.90;;;;;;6208898;23;20190;-91
2022/01/15 08:21:22;;;;;;;0.53;0.50;;;6.90;99.90;;;;;;6160231;23;20189;-90
2022/01/15 08:23:48;;;;;;;0.50;0.50;;;6.90;99.90;;;;;;6159169;23;20281;-91
2022/01/15 08:26:13;;;;;;;1.07;1.07;;;6.90;99.90;;;;;;6159305;23;20223;-91
2022/01/15 08:28:39;;;;;;;0.70;0.60;;;6.90;99.90;;;;;;6159600;23;20202;-90
2022/01/15 08:31:08;;;;;;;0.93;0.93;;;6.90;99.90;;;;;;6159473;23;20198;-91
2022/01/15 08:33:34;;;;;;;3.10;1.30;;;6.90;99.90;;;;;;6159002;23;20244;-90
2022/01/15 08:36:00;;;;;;;0.50;0.50;;;6.90;99.90;;;;;;6184406;23;20975;-92
2022/01/15 08:38:26;;;;;;;0.53;0.53;;;6.80;99.90;;;;;;6184621;23;20232;-91
2022/01/15 08:40:52;;;;;;;0.87;0.87;;;6.90;99.90;;;;;;6184245;23;20644;-91
2022/01/15 08:43:17;;;;;;;0.90;0.90;;;6.80;99.90;;;;;;6184391;23;20197;-91
2022/01/15 08:45:45;;;;;;;0.50;0.50;;;6.90;99.90;;;;;;6183798;23;20162;-92
2022/01/15 08:48:11;;;;;;;0.57;0.57;;;6.90;99.90;;;;;;6185847;23;20169;-91
2022/01/15 08:50:37;;;;;;;0.73;0.73;;;6.90;99.90;;;;;;6184728;23;20204;-91
2022/01/15 08:53:06;;;;;;;2.10;1.70;;;6.90;99.90;;;;;;6208714;23;20305;-91
2022/01/15 08:55:33;;;;;;;1.77;1.30;;;6.90;99.90;;;;;;6184154;23;20193;-91
2022/01/15 08:57:59;;;;;;;1.50;1.40;;;6.90;99.90;;;;;;6159161;23;20190;-91
2022/01/15 09:00:27;;;;;;;1.03;0.73;;;6.90;99.90;;;;;;6208889;23;20189;-90
2022/01/15 09:02:55;;;;;;;1.20;0.90;;;6.90;99.90;;;;;;6185127;23;20261;-91
2022/01/15 09:05:21;;;;;;;3.23;0.40;;;6.80;99.90;;;;;;6184215;23;20224;-91
2022/01/15 09:07:47;;;;;;;0.87;0.87;;;6.70;99.90;;;;;;6184007;23;20273;-91
2022/01/15 09:10:13;;;;;;;0.23;0.23;;;6.80;99.90;;;;;;6159076;23;20201;-91
2022/01/15 09:12:38;;;;;;;1.03;0.83;;;6.80;99.90;;;;;;6158994;23;20162;-90
2022/01/15 09:15:05;;;;;;;1.47;0.80;;;6.90;99.90;;;;;;6159828;23;20251;-91
2022/01/15 09:17:31;;;;;;;0.93;0.93;;;6.90;99.90;;;;;;6183554;23;20197;-92
2022/01/15 09:19:56;;;;;;;1.07;0.73;;;6.90;99.90;;;;;;6183250;23;20260;-91
2022/01/15 09:22:23;;;;;;;1.93;0.93;;;6.90;99.90;;;;;;6158748;23;20194;-91
2022/01/15 09:24:48;;;;;;;2.13;0.93;;;6.90;99.90;;;;;;6183368;23;20260;-92
2022/01/15 09:30:17;;;;;;;2.43;0.80;;;6.80;99.90;;;;;;6209236;23;20269;-92
2022/01/15 09:32:49;;;;;;;1.40;1.30;;;6.90;99.90;;;;;;6187192;23;20186;-92
2022/01/15 09:35:18;;;;;;;1.57;0.33;;;6.90;99.90;;;;;;6208530;23;20233;-91
2022/01/15 09:37:46;;;;;;;1.47;0.70;;;6.90;99.90;;;;;;6208120;23;20248;-92
2022/01/15 09:40:13;;;;;;;0.83;0.83;;;6.90;99.90;;;;;;6208566;23;20235;-92
2022/01/15 09:42:40;;;;;;;1.27;1.27;;;6.90;99.90;;;;;;6208355;23;20235;-92
2022/01/15 09:45:09;;;;;;;0.93;0.93;;;6.90;99.90;;;;;;6185674;23;20158;-92
2022/01/15 09:47:36;;;;;;;0.70;0.70;;;7.00;99.90;;;;;;6217755;23;20198;-91
2022/01/15 09:50:09;;;;;;;0.53;0.53;;;7.10;99.90;;;;;;6210131;23;20611;-93
2022/01/15 09:52:35;;;;;;;0.67;0.67;;;7.10;99.90;;;;;;6184599;23;20198;-92
2022/01/15 09:55:02;;;;;;;0.77;0.77;;;7.10;99.90;;;;;;6183859;23;20225;-91
2022/01/15 09:57:28;;;;;;;1.57;1.07;;;7.10;99.90;;;;;;6183869;23;20208;-91
2022/01/15 09:59:54;;;;;;;1.30;1.27;;;7.10;99.90;;;;;;6183997;23;20159;-91
2022/01/15 10:02:20;;;;;;;2.60;0.77;;;7.10;99.90;;;;;;6158595;23;20205;-91
2022/01/15 10:04:46;;;;;;;0.50;0.23;;;7.10;99.90;;;;;;6182902;23;20939;-92
2022/01/15 10:07:22;;;;;;;0.87;0.87;;;7.10;99.90;;;;;;6160006;23;20272;-92
2022/01/15 10:09:49;;;;;;;1.47;0.90;;;6.90;99.90;;;;;;6208804;23;20269;-92
2022/01/15 10:12:32;;;;;;;1.03;1.03;;;7.00;99.90;;;;;;6184865;23;20185;-94
2022/01/15 10:15:08;;;;;;;1.10;1.00;;;7.10;99.90;;;;;;6208853;23;20193;-92
2022/01/15 10:17:41;;;;;;;3.13;1.37;;;7.00;99.90;;;;;;6184433;23;20202;-93
2022/01/15 10:20:18;;;;;;;0.20;0.20;;;6.90;99.90;;;;;;6209922;23;20193;-92
2022/01/15 10:22:50;;;;;;;0.90;0.67;;;6.80;99.90;;;;;;6208862;23;20570;-93
2022/01/15 10:25:21;;;;;;;0.67;0.37;;;7.00;99.90;;;;;;6209233;23;20239;-92
2022/01/15 10:27:52;;;;;;;4.60;1.20;;;6.90;99.90;;;;;;6183735;23;20190;-91
2022/01/15 10:30:20;;;;;;;0.70;0.70;;;6.90;99.90;;;;;;6209193;23;20204;-92
2022/01/15 10:32:58;;;;;;;0.90;0.80;;;6.80;99.90;;;;;;6204211;23;20197;-90
2022/01/15 10:35:46;;;;;;;1.20;0.80;;;6.90;99.90;;;;;;6208238;23;20888;-92
2022/01/15 10:38:15;;;;;;;0.97;0.93;;;6.90;99.90;;;;;;6207698;23;21040;-93
2022/01/15 10:40:44;;;;;;;0.93;0.93;;;6.90;99.90;;;;;;6209256;23;20206;-92
2022/01/15 10:43:15;;;;;;;0.63;0.63;;;7.10;99.90;;;;;;6211511;23;20198;-93
2022/01/15 10:46:01;;;;;;;1.13;1.10;;;7.00;99.90;;;;;;6211140;23;20158;-93
2022/01/15 10:48:33;;;;;;;0.67;0.63;;;7.00;99.90;;;;;;6210847;23;20630;-93
2022/01/15 10:51:05;;;;;;;0.73;0.73;;;7.00;99.90;;;;;;6213190;23;20212;-92
2022/01/15 10:53:42;;;;;;;1.13;0.67;;;7.00;99.90;;;;;;6189630;23;20206;-90
2022/01/15 10:56:12;;;;;;;0.80;0.80;;;7.10;99.90;;;;;;6213651;23;20193;-92
2022/01/15 10:58:39;;;;;;;6.43;3.77;;;7.10;99.90;;;;;;6212579;23;20194;-92
2022/01/15 11:01:05;;;;;;;0.97;0.97;;;7.20;99.90;;;;;;6214663;23;20247;-94
2022/01/15 11:03:44;;;;;;;1.40;1.10;;;7.10;99.90;;;;;;6189436;23;20162;-92
2022/01/15 11:06:10;;;;;;;1.90;1.70;;;7.20;99.90;;;;;;6216360;23;20145;-91
2022/01/15 11:08:38;;;;;;;0.47;0.47;;;7.20;99.90;;;;;;6216039;23;20260;-93
2022/01/15 11:11:09;;;;;;;1.47;1.13;;;7.10;99.90;;;;;;6214840;23;20200;-93
2022/01/15 11:13:39;;;;;;;3.17;1.33;;;7.00;99.90;;;;;;6214536;23;20202;-93
2022/01/15 11:16:14;;;;;;;1.47;1.47;;;7.00;99.90;;;;;;6214808;23;20194;-94
2022/01/15 11:18:51;;;;;;;1.03;1.03;;;7.00;99.90;;;;;;6213310;23;20185;-93
2022/01/15 11:21:19;;;;;;;1.57;0.80;;;7.00;99.90;;;;;;6190660;23;20146;-92
2022/01/15 11:23:47;;;;;;;2.40;1.13;;;7.10;99.90;;;;;;6213604;23;20623;-93
2022/01/15 11:26:23;;;;;;;0.60;0.60;;;7.10;99.90;;;;;;6213933;23;20198;-92
2022/01/15 11:28:49;;;;;;;0.77;0.77;;;7.00;99.90;;;;;;6188933;23;20193;-93
2022/01/15 11:31:28;;;;;;;0.30;0.30;;;6.90;99.90;;;;;;6163161;23;20255;-90
2022/01/15 11:33:56;;;;;;;0.90;0.90;;;6.80;99.90;;;;;;6214524;23;20201;-91
2022/01/15 11:36:30;;;;;;;2.37;2.07;;;6.80;99.90;;;;;;6191812;23;20170;-93
2022/01/15 11:38:57;;;;;;;2.10;0.97;;;6.70;99.90;;;;;;6214636;23;20189;-92
2022/01/15 11:41:22;;;;;;;2.90;1.77;;;6.80;99.90;;;;;;6214727;23;20198;-93
2022/01/15 11:43:50;;;;;;;0.40;0.40;;;6.70;99.90;;;;;;6215872;23;20250;-93
2022/01/15 11:46:47;;;;;;;2.07;1.00;;;6.80;99.90;;;;;;6216618;23;20182;-93
2022/01/15 11:49:37;;;;;;;1.37;1.13;;;6.70;99.90;;;;;;6216296;23;20190;-92
2022/01/15 11:52:05;;;;;;;0.87;0.87;;;6.60;99.90;;;;;;6216102;23;20249;-92
2022/01/15 11:54:35;;;;;;;2.00;1.90;;;6.70;99.90;;;;;;6216102;23;20204;-92
2022/01/15 11:57:03;;;;;;;1.93;1.60;;;6.70;99.90;;;;;;6192834;23;20150;-92
2022/01/15 11:59:29;;;;;;;2.53;1.23;;;6.70;99.90;;;;;;6191476;23;20194;-93
2022/01/15 12:02:01;;;;;;;2.83;2.63;;;6.80;99.90;;;;;;6216011;23;20197;-92
2022/01/15 12:04:34;;;;;;;17.70;1.47;;;6.90;99.90;;;;;;6191120;23;20186;-92
2022/01/15 12:07:19;;;;;;;7.53;3.00;;;6.80;99.90;;;;;;6215969;23;20194;-92
2022/01/15 12:09:49;;;;;;;13.43;2.50;;;6.80;99.90;;;;;;6215715;23;20208;-92
2022/01/15 12:12:18;;;;;;;3.30;1.03;;;6.80;99.90;;;;;;6191347;23;20536;-92
2022/01/15 12:14:51;;;;;;;2.70;2.00;;;6.80;99.90;;;;;;6216626;23;20206;-92
2022/01/15 12:17:24;;;;;;;1.80;1.60;;;6.80;99.90;;;;;;6213902;23;20205;-94
2022/01/15 12:19:53;;;;;;;4.27;2.30;;;6.80;99.90;;;;;;6212439;23;20538;-94
2022/01/15 12:22:36;;;;;;;4.97;4.50;;;6.80;99.90;;;;;;6214112;23;20194;-93
2022/01/15 12:25:15;;;;;;;2.23;2.03;;;6.70;99.90;;;;;;6164623;23;20691;-94
2022/01/15 12:27:42;;;;;;;3.60;2.20;;;6.60;99.90;;;;;;6213764;23;20143;-94
2022/01/15 12:30:15;;;;;;;2.60;2.13;;;6.60;99.90;;;;;;6164620;23;20258;-94
2022/01/15 12:32:47;;;;;;;2.47;2.37;;;6.70;99.90;;;;;;6212615;23;20276;-94
2022/01/15 12:35:22;;;;;;;3.30;1.57;;;6.60;99.90;;;;;;6213401;23;20210;-94
2022/01/15 12:37:58;;;;;;;6.03;1.50;;;6.60;99.90;;;;;;6164703;23;20292;-94
2022/01/15 12:40:35;;;;;;;1.87;1.77;;;6.70;99.90;;;;;;6211745;23;20284;-94
2022/01/15 12:43:11;;;;;;;5.27;4.13;;;6.80;99.90;;;;;;6213818;23;20252;-92
2022/01/15 12:45:38;;;;;;;1.17;1.07;;;6.70;99.90;;;;;;6213731;23;20146;-93
2022/01/15 12:48:07;;;;;;;0.83;0.83;;;6.70;99.90;;;;;;6214250;23;20210;-92
2022/01/15 12:50:51;;;;;;;2.20;1.73;;;6.60;99.90;;;;;;6164851;23;20222;-93
2022/01/15 12:53:20;;;;;;;2.40;2.00;;;6.60;99.90;;;;;;6189860;23;20244;-92
2022/01/15 12:55:47;;;;;;;3.93;2.77;;;6.60;99.90;;;;;;6214236;23;20665;-92
2022/01/15 12:58:23;;;;;;;4.47;2.30;;;6.60;99.90;;;;;;6214360;23;20190;-93
2022/01/15 13:00:50;;;;;;;4.73;3.13;;;6.50;99.90;;;;;;6189372;23;20186;-93
2022/01/15 13:03:22;;;;;;;4.17;2.53;;;6.60;99.90;;;;;;6186329;23;20167;-91
2022/01/15 13:05:57;;;;;;;1.53;1.43;;;6.50;99.90;;;;;;6210242;23;20642;-92
2022/01/15 13:08:28;;;;;;;2.97;1.60;;;6.40;99.90;;;;;;6209202;23;20276;-92
2022/01/15 13:11:03;;;;;;;3.57;2.73;;;6.30;99.90;;;;;;6209696;23;20190;-92
2022/01/15 13:13:38;;;;;;;1.60;1.33;;;6.40;99.90;;;;;;6187053;23;20229;-93
2022/01/15 13:16:07;;;;;;;1.60;1.50;;;6.40;99.90;;;;;;6209317;23;20193;-92
2022/01/15 13:18:40;;;;;;;2.77;2.57;;;6.40;99.90;;;;;;6209757;23;20162;-92
2022/01/15 13:21:14;;;;;;;0.87;0.87;;;6.40;99.90;;;;;;6184841;23;20158;-93
2022/01/15 13:23:42;;;;;;;1.17;1.10;;;6.50;99.90;;;;;;6209469;23;20272;-92
2022/01/15 13:26:11;;;;;;;1.67;1.57;;;6.50;99.90;;;;;;6209083;23;20201;-92
2022/01/15 13:28:38;;;;;;;5.50;1.67;;;6.50;99.90;;;;;;6208619;23;20197;-93
2022/01/15 13:31:04;;;;;;;1.63;1.40;;;6.50;99.90;;;;;;6208785;23;20284;-92